Airfield :
LOGIN :

Register | Disclaimer

   EN    FR    IT 

 










Legend :    VFR   Marginal VFR   IFR   Intensive IFR   Very Intensive IFR
Visi :
Ceiling :
>= 8 km
>= 3000ft
5 to 8 km
1000 to 3000 ft
1500m to 5 km
500 to 1000 ft
800 to 1500m
200 to 500 ft
< 800m
< 200 ft
Symbols :   Thunderstorms  Fog  Heavy snow  Heavy precipitations  Wind > 20 kt
SIGMETs :     Misc.  Thunderstorms  Icing  Turbulence  Mountain Waves  Volcanic Ashes






- Airport Elevation : 370 ft


EBBE - Beauvechain AB

CURRENT METAR :
  • 271314Z 21013KT 5000 -SHRA SCT018TCU BKN025 17/15 Q1013 WHT BLU TEMPO GRN

EXPIRED METARs :
  • 271304Z 21013KT 4000 -SHRA SCT019TCU BKN025 17/15 Q1013 GRN BLU TEMPO GRN
  • 271255Z 21015KT 5000 -SHRA SCT019TCU BKN025 17/15 Q1013 WHT BLU TEMPO GRN
  • 271233Z 20016KT 8000 -SHRA SCT019TCU SCT025 BKN080 18/15 Q1013 WHT BLU TEMPO GRN
  • 271211Z 20018KT 9999 FEW019 SCT025 BKN080 19/14 Q1013 BLU BLU TEMPO GRN
  • 271155Z 19018KT 9999 FEW019 SCT023 BKN080 19/14 Q1013 WHT BLU TEMPO GRN
  • 271125Z 19018KT 9999 FEW019 BKN090 19/14 Q1012 BLU BLU TEMPO GRN
  • 271055Z 18015KT 9999 FEW019 BKN090 18/15 Q1013 BLU BLU TEMPO GRN

TAF TAF EBBE
Valid from the 27 at 13:00 until the 27 at 22:00 UTC


271141Z 2713/2722 20010G20KT 9999 FEW030 BKN070
TEMPO 2713/2716 20015G25KT 4000 -SHRA SCT025TCU BKN060
BECMG 2714/2716 26008KT FEW020 SCT240



MET'MAP, your aeronautical weather chart ! - Copyright ORBIFLY December 2007 - Disclaimer

ORBIFLY MET'MAP TEAM :

Programming & Development : Alexandra Zaïnal
Concept & original design : Baudouin d'Aumeries
Assistance for programming : Marc-Olivier Méhu
Technical & hardware support : Manuel Goepfert

Contact : metmap@orbifly.com




SOURCES & CREDITS :

   NOAA